KFPR/FPR METAR and TAF weather

Enter ICAO airport designator
Station Type Date Time Source
KFPR METAR 2019/06/20 06:53 UTC NOAA

KFPR 200653Z AUTO 00000KT 10SM CLR 23/22 A2999 RMK AO2 SLP154 T02280217 TSNO


Station Type Date Time Source
KFPR Decoded METAR 2019/06/20 06:53 UTC NOAA

FORT PIERCE ST LUCIE, FL, United States (KFPR) 27-30N 080-23W 13M
Jun 20, 2019 - 02:53 AM EDT / 2019.06.20 0653 UTC
Wind: Calm:0
Visibility: 10 mile(s):0
Sky conditions: clear
Temperature: 73.0 F (22.8 C)
Dew Point: 71.1 F (21.7 C)
Relative Humidity: 93%
Pressure (altimeter): 29.99 in. Hg (1015 hPa)
ob: KFPR 200653Z AUTO 00000KT 10SM CLR 23/22 A2999 RMK AO2 SLP154 T02280217 TSNO
cycle: 7

Station Type Date Time Source
KFPR TAF 2019/06/20 06:48 UTC NOAA

TAF KFPR 200545Z 2006/2106 18005KT P6SM FEW040 SCT150
FM201400 23009KT P6SM SCT040 SCT250
FM202000 14012KT P6SM VCTS SCT060CB SCT080
FM210000 20006KT P6SM FEW070 SCT250

Example: see airport list